Deroche, Canada
Current Conditions -  °F | °C
As of 7:00 AM on Wednesday 22 Oct 2014 (Local Time) from CYXX Reporting Station
Rain Showers Rain Showers  
Wind Chill: 55°   Ceiling: 7000
Heat Index: 55°   Visibility: 7mi
Dew Point: 52°   Wind: 22mph
Humidity: 88%   Direction: 130°SE
Pressure: 29.6"   Gusts: 29mph
Location:  49.19°N, 122.07°W
Report Text: CYXX 221400Z 13019G25KT 7SM -SHRA FEW010 SCT030 BKN070 13/11 A2960 RMK CU1SC4AC3 CU TR PRESFR SLP025 DENSITY ALT 300FT
Loading
Personal Weather Stations






























Interactive Weather Map
Tropical Storm Tracking
New forecast layout! Learn more

10-Day Weather Forecast

Advertisements
Track Severe Weather on mobile